Time;durP1;ratioP1;P1;durP2;ratioP2;P2;SDS_P1;SDS_P2;PMS_P1;PMS_P2;Temp;Humidity;BMP_temperature;BMP_pressure;BME280_temperature;BME280_humidity;BME280_pressure;Samples;Min_cycle;Max_cycle;Signal;HPM_P1;HPM_P2
2022/06/01 00:01:13;;;;;;;;;;;;;;;-142.75;100.00;77304.59;5013096;28;19917;-63
2022/06/01 00:03:40;;;;;;;;;;;;;;;-142.75;100.00;77302.63;5013307;28;20356;-66
2022/06/01 00:06:05;;;;;;;;;;;;;;;-142.75;100.00;77314.44;5013043;28;19918;-65
2022/06/01 00:08:31;;;;;;;;;;;;;;;-142.75;100.00;77324.28;5012687;28;19917;-63
2022/06/01 00:10:57;;;;;;;;;;;;;;;-142.75;100.00;77330.19;5012968;28;19924;-63
2022/06/01 00:13:22;;;;;;;;;;;;;;;-142.75;100.00;77316.41;5012941;28;19922;-64
2022/06/01 00:15:48;;;;;;;;;;;;;;;-142.75;100.00;77312.47;5012867;28;20379;-63
2022/06/01 00:18:13;;;;;;;;;;;;;;;-142.75;100.00;77306.56;5034919;23;19972;-68
2022/06/01 00:20:38;;;;;;;;;;;;;;;-142.75;100.00;77302.63;5013097;28;19929;-68
2022/06/01 00:23:03;;;;;;;;;;;;;;;-142.75;100.00;77300.66;5031331;28;19923;-68
2022/06/01 00:25:29;;;;;;;;;;;;;;;-142.75;100.00;77292.78;5031513;28;19963;-68
2022/06/01 00:27:54;;;;;;;;;;;;;;;-142.75;100.00;77308.53;4994207;28;19917;-67
2022/06/01 00:30:20;;;;;;;;;;;;;;;-142.75;100.00;77306.56;5013554;28;20379;-68
2022/06/01 00:32:46;;;;;;;;;;;;;;;-142.75;100.00;77310.50;5032276;28;20426;-68
2022/06/01 00:35:12;;;;;;;;;;;;;;;-142.75;100.00;77310.50;5016625;28;19917;-69
2022/06/01 00:37:38;;;;;;;;;;;;;;;-142.75;100.00;77304.59;5012408;28;19918;-68
2022/06/01 00:40:04;;;;;;;;;;;;;;;-142.75;100.00;77304.59;5012161;28;19921;-68
2022/06/01 00:42:30;;;;;;;;;;;;;;;-142.75;100.00;77320.34;5013865;28;19967;-68
2022/06/01 00:44:55;;;;;;;;;;;;;;;-142.75;100.00;77322.31;5032275;28;19970;-68
2022/06/01 00:47:22;;;;;;;;;;;;;;;-142.75;100.00;77338.06;5014319;28;20375;-69
2022/06/01 00:50:06;;;;;;;;;;;;;;;-142.75;100.00;77332.16;5031746;28;20482;-69
2022/06/01 00:52:35;;;;;;;;;;;;;;;-142.75;100.00;77318.38;5031973;28;20031;-68
2022/06/01 00:55:05;;;;;;;;;;;;;;;-142.75;100.00;77308.53;5031907;28;19921;-68
2022/06/01 00:57:31;;;;;;;;;;;;;;;-142.75;100.00;77308.53;5013967;28;20375;-68
2022/06/01 00:59:57;;;;;;;;;;;;;;;-142.75;100.00;77306.56;5031522;28;19929;-69
2022/06/01 01:02:22;;;;;;;;;;;;;;;-142.75;100.00;77322.31;5014017;28;19950;-68
2022/06/01 01:04:47;;;;;;;;;;;;;;;-142.75;100.00;77326.25;5031841;28;20003;-68
2022/06/01 01:07:13;;;;;;;;;;;;;;;-142.75;100.00;77332.16;5031654;28;20034;-68
2022/06/01 01:09:39;;;;;;;;;;;;;;;-142.75;100.00;77332.16;5019288;28;19918;-71
2022/06/01 01:12:06;;;;;;;;;;;;;;;-142.75;100.00;77326.25;5011777;28;19924;-70
2022/06/01 01:14:34;;;;;;;;;;;;;;;-142.75;100.00;77330.19;5011946;28;20280;-68
2022/06/01 01:16:59;;;;;;;;;;;;;;;-142.75;100.00;77326.25;5030401;28;20007;-72
2022/06/01 01:19:31;;;;;;;;;;;;;;;-142.75;100.00;77326.25;5012783;28;20027;-71
2022/06/01 01:22:07;;;;;;;;;;;;;;;-142.75;100.00;77318.38;5030802;28;19925;-72
2022/06/01 01:24:45;;;;;;;;;;;;;;;-142.75;100.00;77318.38;5030638;28;19917;-68
2022/06/01 01:27:10;;;;;;;;;;;;;;;-142.75;100.00;77322.31;5030650;28;19974;-71
2022/06/01 01:29:38;;;;;;;;;;;;;;;-142.75;100.00;77314.44;5011651;28;19921;-68
2022/06/01 01:32:05;;;;;;;;;;;;;;;-142.75;100.00;77312.47;5010848;28;19917;-68
2022/06/01 01:34:31;;;;;;;;;;;;;;;-142.75;100.00;77308.53;5010867;28;19917;-68
2022/06/01 01:36:59;;;;;;;;;;;;;;;-142.75;100.00;77306.56;5029157;28;20329;-69
2022/06/01 01:39:25;;;;;;;;;;;;;;;-142.75;100.00;77300.66;5028994;28;19928;-69
2022/06/01 01:41:52;;;;;;;;;;;;;;;-142.75;100.00;77308.53;5030428;28;20011;-70
2022/06/01 01:44:36;;;;;;;;;;;;;;;-142.75;100.00;77302.63;5030301;28;20332;-70
2022/06/01 01:47:02;;;;;;;;;;;;;;;-142.75;100.00;77306.56;5030418;28;19921;-69
2022/06/01 01:49:30;;;;;;;;;;;;;;;-142.75;100.00;77304.59;5029963;28;19925;-71
2022/06/01 01:51:58;;;;;;;;;;;;;;;-142.75;100.00;77306.56;5030392;28;19940;-70
2022/06/01 01:54:23;;;;;;;;;;;;;;;-142.75;100.00;77318.38;5030422;28;20031;-70
2022/06/01 01:56:59;;;;;;;;;;;;;;;-142.75;100.00;77316.41;5030215;28;19932;-70
2022/06/01 01:59:44;;;;;;;;;;;;;;;-142.75;100.00;77326.25;5029847;28;19921;-70
2022/06/01 02:02:26;;;;;;;;;;;;;;;-142.75;100.00;77330.19;5030226;28;19924;-70
2022/06/01 02:08:06;;;;;;;;;;;;;;;-142.75;100.00;77351.84;5030080;28;19924;-70
2022/06/01 02:13:17;;;;;;;;;;;;;;;-142.75;100.00;77355.78;5030493;28;19923;-70
2022/06/01 02:15:44;;;;;;;;;;;;;;;-142.75;100.00;77353.81;5030043;28;19917;-70
2022/06/01 02:18:14;;;;;;;;;;;;;;;-142.75;100.00;77349.88;4968137;28;1760129;-70
2022/06/01 02:20:42;;;;;;;;;;;;;;;-142.75;100.00;77338.06;5030772;28;20406;-69
2022/06/01 02:23:11;;;;;;;;;;;;;;;-142.75;100.00;77340.03;5030844;28;20011;-70
2022/06/01 02:25:36;;;;;;;;;;;;;;;-142.75;100.00;77322.31;5030762;28;19917;-70
2022/06/01 02:28:02;;;;;;;;;;;;;;;-142.75;100.00;77320.34;5030507;28;19939;-68
2022/06/01 02:30:31;;;;;;;;;;;;;;;-142.75;100.00;77314.44;5030726;28;19924;-70
2022/06/01 02:32:57;;;;;;;;;;;;;;;-142.75;100.00;77318.38;5030758;28;19923;-70
2022/06/01 02:35:24;;;;;;;;;;;;;;;-142.75;100.00;77322.31;5030762;28;19917;-70
2022/06/01 02:37:51;;;;;;;;;;;;;;;-142.75;100.00;77330.19;5030427;28;20453;-70
2022/06/01 02:40:18;;;;;;;;;;;;;;;-142.75;100.00;77349.88;5030549;28;19929;-70
2022/06/01 02:42:44;;;;;;;;;;;;;;;-142.75;100.00;77371.53;5030589;28;19921;-70
2022/06/01 02:45:11;;;;;;;;;;;;;;;-142.75;100.00;77383.34;5030736;28;19928;-70
2022/06/01 02:47:41;;;;;;;;;;;;;;;-142.75;100.00;77373.50;5012671;28;19921;-70
2022/06/01 02:50:08;;;;;;;;;;;;;;;-142.75;100.00;77373.50;5012907;28;19956;-70
2022/06/01 02:52:33;;;;;;;;;;;;;;;-142.75;100.00;77363.66;5034280;28;19917;-69
2022/06/01 02:54:58;;;;;;;;;;;;;;;-142.75;100.00;77343.97;5016407;28;19924;-70
2022/06/01 02:57:24;;;;;;;;;;;;;;;-142.75;100.00;77334.13;5034213;28;20302;-70
2022/06/01 02:59:50;;;;;;;;;;;;;;;-142.75;100.00;77338.06;5033692;28;20302;-70
2022/06/01 03:02:15;;;;;;;;;;;;;;;-142.75;100.00;77334.13;5016219;28;19994;-71
2022/06/01 03:04:42;;;;;;;;;;;;;;;-142.75;100.00;77342.00;5034058;28;19951;-71
2022/06/01 03:07:08;;;;;;;;;;;;;;;-142.75;100.00;77342.00;5034116;28;20370;-70
2022/06/01 03:09:34;;;;;;;;;;;;;;;-142.75;100.00;77332.16;5033531;28;19925;-71
2022/06/01 03:11:59;;;;;;;;;;;;;;;-142.75;100.00;77342.00;5033900;28;19916;-70
2022/06/01 03:14:25;;;;;;;;;;;;;;;-142.75;100.00;77349.88;5033870;28;19964;-71
2022/06/01 03:16:50;;;;;;;;;;;;;;;-142.75;100.00;77345.94;5033747;28;19969;-70
2022/06/01 03:19:15;;;;;;;;;;;;;;;-142.75;100.00;77347.91;5033297;28;20294;-70
2022/06/01 03:21:41;;;;;;;;;;;;;;;-142.75;100.00;77353.81;5033698;28;19925;-70
2022/06/01 03:24:06;;;;;;;;;;;;;;;-142.75;100.00;77349.88;5033619;28;19917;-70
2022/06/01 03:26:32;;;;;;;;;;;;;;;-142.75;100.00;77349.88;5033525;28;20353;-67
2022/06/01 03:28:57;;;;;;;;;;;;;;;-142.75;100.00;77353.81;5033297;28;19917;-70
2022/06/01 03:31:22;;;;;;;;;;;;;;;-142.75;100.00;77357.75;5033457;28;20410;-70
2022/06/01 03:33:47;;;;;;;;;;;;;;;-142.75;100.00;77357.75;5033523;28;19917;-70
2022/06/01 03:36:12;;;;;;;;;;;;;;;-142.75;100.00;77361.69;5033448;28;19917;-70
2022/06/01 03:38:38;;;;;;;;;;;;;;;-142.75;100.00;77369.56;5032898;28;19924;-70
2022/06/01 03:41:03;;;;;;;;;;;;;;;-142.75;100.00;77369.56;5033450;28;19921;-69
2022/06/01 03:43:28;;;;;;;;;;;;;;;-142.75;100.00;77373.50;5033245;28;19940;-70
2022/06/01 03:45:57;;;;;;;;;;;;;;;-142.75;100.00;77377.44;5033228;28;20394;-71
2022/06/01 03:48:23;;;;;;;;;;;;;;;-142.75;100.00;77377.44;5032793;28;19928;-70
2022/06/01 03:50:49;;;;;;;;;;;;;;;-142.75;100.00;77381.38;5026524;28;19922;-70
2022/06/01 03:53:14;;;;;;;;;;;;;;;-142.75;100.00;77391.22;5032859;28;19963;-71
2022/06/01 03:55:40;;;;;;;;;;;;;;;-142.75;100.00;77393.19;5015262;28;19964;-70
2022/06/01 03:58:05;;;;;;;;;;;;;;;-142.75;100.00;77391.22;5032634;28;19921;-70
2022/06/01 04:00:31;;;;;;;;;;;;;;;-142.75;100.00;77381.38;5015184;28;19922;-68
2022/06/01 04:02:56;;;;;;;;;;;;;;;-142.75;100.00;77385.31;5032073;28;19952;-70
2022/06/01 04:05:22;;;;;;;;;;;;;;;-142.75;100.00;77393.19;5032904;28;20000;-70
2022/06/01 04:07:48;;;;;;;;;;;;;;;-142.75;100.00;77414.84;5032513;28;20306;-71
2022/06/01 04:10:13;;;;;;;;;;;;;;;-142.75;100.00;77405.00;5032744;28;19917;-70
2022/06/01 04:12:38;;;;;;;;;;;;;;;-142.75;100.00;77414.84;5032834;28;19917;-70
2022/06/01 04:15:04;;;;;;;;;;;;;;;-142.75;100.00;77418.78;5032571;28;19917;-71
2022/06/01 04:17:29;;;;;;;;;;;;;;;-142.75;100.00;77418.78;5032497;28;19921;-70
2022/06/01 04:19:55;;;;;;;;;;;;;;;-142.75;100.00;77416.81;5032265;28;19917;-70
2022/06/01 04:22:21;;;;;;;;;;;;;;;-142.75;100.00;77424.69;5014779;28;20387;-70
2022/06/01 04:24:46;;;;;;;;;;;;;;;-142.75;100.00;77416.81;5032501;28;19976;-70
2022/06/01 04:27:11;;;;;;;;;;;;;;;-142.75;100.00;77418.78;5032428;28;19932;-70
2022/06/01 04:29:36;;;;;;;;;;;;;;;-142.75;100.00;77424.69;5032095;28;19940;-70
2022/06/01 04:32:07;;;;;;;;;;;;;;;-142.75;100.00;77424.69;5032322;28;19921;-69
2022/06/01 04:34:32;;;;;;;;;;;;;;;-142.75;100.00;77420.75;5032339;28;19917;-70
2022/06/01 04:36:58;;;;;;;;;;;;;;;-142.75;100.00;77403.03;5032221;28;19925;-70
2022/06/01 04:39:23;;;;;;;;;;;;;;;-142.75;100.00;77406.97;5031729;28;19924;-70
2022/06/01 04:41:49;;;;;;;;;;;;;;;-142.75;100.00;77416.81;5032288;28;20521;-70
2022/06/01 04:44:16;;;;;;;;;;;;;;;-142.75;100.00;77408.94;5014302;28;19924;-70
2022/06/01 04:46:41;;;;;;;;;;;;;;;-142.75;100.00;77405.00;5032090;28;19921;-70
2022/06/01 04:49:07;;;;;;;;;;;;;;;-142.75;100.00;77403.03;5031554;28;19917;-70
2022/06/01 04:51:32;;;;;;;;;;;;;;;-142.75;100.00;77393.19;5032024;28;19921;-70
2022/06/01 04:53:58;;;;;;;;;;;;;;;-142.75;100.00;77405.00;5031816;28;19940;-72
2022/06/01 04:56:23;;;;;;;;;;;;;;;-142.75;100.00;77397.13;5032016;28;20003;-70
2022/06/01 04:58:49;;;;;;;;;;;;;;;-142.75;100.00;77389.25;5013707;28;19917;-71
2022/06/01 05:01:14;;;;;;;;;;;;;;;-142.75;100.00;77381.38;5031971;28;19921;-70
2022/06/01 05:03:39;;;;;;;;;;;;;;;-142.75;100.00;77363.66;5031825;28;20442;-70
2022/06/01 05:06:04;;;;;;;;;;;;;;;-142.75;100.00;77353.81;5031662;28;20008;-70
2022/06/01 05:08:29;;;;;;;;;;;;;;;-142.75;100.00;77345.94;5013730;28;20405;-69
2022/06/01 05:10:55;;;;;;;;;;;;;;;-142.75;100.00;77326.25;5031701;28;19925;-70
2022/06/01 05:13:20;;;;;;;;;;;;;;;-142.75;100.00;77308.53;5031557;28;19962;-70
2022/06/01 05:15:47;;;;;;;;;;;;;;;-142.75;100.00;77286.88;5013892;28;19928;-71
2022/06/01 05:18:12;;;;;;;;;;;;;;;-142.75;100.00;77277.03;5031042;28;19917;-69
2022/06/01 05:20:38;;;;;;;;;;;;;;;-142.75;100.00;77263.25;5031575;28;19928;-70
2022/06/01 05:23:03;;;;;;;;;;;;;;;-142.75;100.00;77259.31;5013775;28;19929;-69
2022/06/01 05:25:29;;;;;;;;;;;;;;;-142.75;100.00;77247.50;5031437;28;19985;-70
2022/06/01 05:27:54;;;;;;;;;;;;;;;-142.75;100.00;77219.94;5031016;28;19976;-69
2022/06/01 05:30:19;;;;;;;;;;;;;;;-142.75;100.00;77200.25;5031357;28;19944;-70
2022/06/01 05:32:44;;;;;;;;;;;;;;;-142.75;100.00;77168.75;5013694;28;20406;-70
2022/06/01 05:35:09;;;;;;;;;;;;;;;-142.75;100.00;77147.09;5013652;28;20011;-70
2022/06/01 05:37:35;;;;;;;;;;;;;;;-142.75;100.00;77129.38;5031381;28;19917;-70
2022/06/01 05:40:00;;;;;;;;;;;;;;;-142.75;100.00;77111.66;5030951;28;20378;-68
2022/06/01 05:42:25;;;;;;;;;;;;;;;-142.75;100.00;77107.72;5031278;28;19993;-70
2022/06/01 05:44:52;;;;;;;;;;;;;;;-142.75;100.00;77095.91;5031022;28;19917;-69
2022/06/01 05:47:17;;;;;;;;;;;;;;;-142.75;100.00;77090.00;5031112;28;19917;-70
2022/06/01 05:49:42;;;;;;;;;;;;;;;-142.75;100.00;77078.19;5030718;28;19963;-71
2022/06/01 05:52:07;;;;;;;;;;;;;;;-142.75;100.00;77056.53;5031168;28;19917;-70
2022/06/01 05:54:33;;;;;;;;;;;;;;;-142.75;100.00;77034.88;5031199;28;20378;-70
2022/06/01 05:56:58;;;;;;;;;;;;;;;-142.75;100.00;77015.19;5013403;28;20006;-70
2022/06/01 05:59:23;;;;;;;;;;;;;;;-142.75;100.00;76999.44;5030485;28;19951;-71
2022/06/01 06:01:48;;;;;;;;;;;;;;;-142.75;100.00;76979.75;5031021;28;20310;-70
2022/06/01 06:04:13;;;;;;;;;;;;;;;-142.75;100.00;76964.00;5031120;28;19921;-72
2022/06/01 06:06:39;;;;;;;;;;;;;;;-142.75;100.00;76936.44;5013324;28;19924;-71
2022/06/01 06:09:07;;;;;;;;;;;;;;;-142.75;100.00;76922.66;5030523;28;20417;-71
2022/06/01 06:11:34;;;;;;;;;;;;;;;-142.75;100.00;76904.94;5030896;28;19921;-70
2022/06/01 06:14:00;;;;;;;;;;;;;;;-142.75;100.00;76895.09;5024482;28;20746;-68
2022/06/01 06:16:26;;;;;;;;;;;;;;;-142.75;100.00;76873.44;5030617;28;19971;-70
2022/06/01 06:18:56;;;;;;;;;;;;;;;-142.75;100.00;76847.84;5052739;23;19948;-63
2022/06/01 06:21:21;;;;;;;;;;;;;;;-142.75;100.00;76834.06;5048578;28;19929;-66
2022/06/01 06:23:46;;;;;;;;;;;;;;;-142.75;100.00;76818.31;5049625;28;19978;-66
2022/06/01 06:26:11;;;;;;;;;;;;;;;-142.75;100.00;76822.25;5051461;28;19927;-66
2022/06/01 06:28:37;;;;;;;;;;;;;;;-142.75;100.00;76834.06;5054303;28;19952;-67
2022/06/01 06:31:02;;;;;;;;;;;;;;;-142.75;100.00;76820.28;5054453;28;19921;-66
2022/06/01 06:33:28;;;;;;;;;;;;;;;-142.75;100.00;76806.50;5054522;28;19970;-66
2022/06/01 06:35:57;;;;;;;;;;;;;;;-142.75;100.00;76800.63;5054598;28;20378;-64
2022/06/01 06:38:26;;;;;;;;;;;;;;;-142.75;100.00;76784.88;5054167;28;19968;-66
2022/06/01 06:40:52;;;;;;;;;;;;;;;-142.75;100.00;76771.09;5054351;28;20003;-66
2022/06/01 06:43:17;;;;;;;;;;;;;;;-142.75;100.00;76745.50;5054373;28;20442;-66
2022/06/01 06:45:42;;;;;;;;;;;;;;;-142.75;100.00;76727.78;5054201;28;19927;-66
2022/06/01 06:48:07;;;;;;;;;;;;;;;-142.75;100.00;76755.34;5053951;28;19917;-66
2022/06/01 06:50:33;;;;;;;;;;;;;;;-142.75;100.00;76780.94;5054198;28;19996;-67
2022/06/01 06:52:58;;;;;;;;;;;;;;;-142.75;100.00;76800.63;5054335;28;20393;-66
2022/06/01 06:55:23;;;;;;;;;;;;;;;-142.75;100.00;76832.09;5052803;28;19986;-66
2022/06/01 06:57:48;;;;;;;;;;;;;;;-142.75;100.00;76859.66;5054004;28;20290;-66
2022/06/01 07:00:14;;;;;;;;;;;;;;;-142.75;100.00;76871.47;5053544;28;19921;-66
2022/06/01 07:02:39;;;;;;;;;;;;;;;-142.75;100.00;76885.25;5054023;28;19990;-66
2022/06/01 07:05:05;;;;;;;;;;;;;;;-142.75;100.00;76883.28;5053847;28;19940;-67
2022/06/01 07:07:30;;;;;;;;;;;;;;;-142.75;100.00;76838.00;5053888;28;20003;-67
2022/06/01 07:09:56;;;;;;;;;;;;;;;-142.75;100.00;76820.28;5053510;28;19916;-66
2022/06/01 07:12:21;;;;;;;;;;;;;;;-142.75;100.00;76843.91;5053767;28;19917;-67
2022/06/01 07:14:46;;;;;;;;;;;;;;;-142.75;100.00;76826.19;5053793;28;19996;-66
2022/06/01 07:17:11;;;;;;;;;;;;;;;-142.75;100.00;76830.13;5053687;28;19917;-67
2022/06/01 07:19:36;;;;;;;;;;;;;;;-142.75;100.00;76857.69;5053093;28;19921;-67
2022/06/01 07:22:02;;;;;;;;;;;;;;;-142.75;100.00;76881.31;5053784;28;19935;-66
2022/06/01 07:24:27;;;;;;;;;;;;;;;-142.75;100.00;76901.00;5053602;28;19916;-67
2022/06/01 07:26:52;;;;;;;;;;;;;;;-142.75;100.00;76912.81;5053695;28;19928;-66
2022/06/01 07:29:21;;;;;;;;;;;;;;;-142.75;100.00;76863.59;5053118;28;19970;-67
2022/06/01 07:31:47;;;;;;;;;;;;;;;-142.75;100.00;76806.50;5053664;28;20015;-66
2022/06/01 07:34:13;;;;;;;;;;;;;;;-142.75;100.00;76757.31;5053411;28;19928;-66
2022/06/01 07:36:38;;;;;;;;;;;;;;;-142.75;100.00;76715.97;5052574;28;19924;-68
2022/06/01 07:44:43;;;;;;;;;;;;;;;-142.75;100.00;76680.53;5053572;28;19955;-66
2022/06/01 07:47:09;;;;;;;;;;;;;;;-142.75;100.00;76700.22;5053431;28;20054;-66
2022/06/01 07:49:36;;;;;;;;;;;;;;;-142.75;100.00;76715.97;5052907;28;19960;-64
2022/06/01 07:52:01;;;;;;;;;;;;;;;-142.75;100.00;76729.75;5053127;28;19955;-66
2022/06/01 07:54:26;;;;;;;;;;;;;;;-142.75;100.00;76745.50;5052868;28;19971;-67
2022/06/01 07:56:51;;;;;;;;;;;;;;;-142.75;100.00;76780.94;5052495;28;19978;-66
2022/06/01 07:59:17;;;;;;;;;;;;;;;-142.75;100.00;76727.78;5041495;28;19921;-67
2022/06/01 08:01:42;;;;;;;;;;;;;;;-142.75;100.00;76674.63;5037446;28;19921;-65
2022/06/01 08:04:08;;;;;;;;;;;;;;;-142.75;100.00;76623.44;5035506;28;19940;-66
2022/06/01 08:06:34;;;;;;;;;;;;;;;-142.75;100.00;76621.47;5042220;28;19916;-67
2022/06/01 08:08:59;;;;;;;;;;;;;;;-142.75;100.00;76586.03;5044204;28;19917;-67
2022/06/01 08:13:06;;;;;;;;;;;;;;;-142.75;100.00;76558.47;5052657;28;19990;-67
2022/06/01 08:14:11;;;;;;;;;;;;;;;-142.75;100.00;76562.41;5052515;28;19916;-67
2022/06/01 08:16:38;;;;;;;;;;;;;;;-142.75;100.00;76582.09;5052613;28;20283;-67
2022/06/01 08:19:03;;;;;;;;;;;;;;;-142.75;100.00;76597.84;5045481;28;19972;-66
2022/06/01 08:21:28;;;;;;;;;;;;;;;-142.75;100.00;76562.41;5033805;28;19964;-67
2022/06/01 08:23:53;;;;;;;;;;;;;;;-142.75;100.00;76523.06;5040129;28;20007;-67
2022/06/01 08:26:19;;;;;;;;;;;;;;;-142.75;100.00;76467.94;5040528;28;19924;-65
2022/06/01 08:28:44;;;;;;;;;;;;;;;-142.75;100.00;76446.28;5032159;28;20378;-64
2022/06/01 08:31:09;;;;;;;;;;;;;;;-142.75;100.00;76420.69;5032469;28;19924;-64
2022/06/01 08:33:34;;;;;;;;;;;;;;;-142.75;100.00;76452.19;5032513;28;19918;-64
2022/06/01 08:36:00;;;;;;;;;;;;;;;-142.75;100.00;76513.22;5033265;28;19917;-65
2022/06/01 08:38:25;;;;;;;;;;;;;;;-142.75;100.00;76475.81;5050533;28;20057;-66
2022/06/01 08:40:56;;;;;;;;;;;;;;;-142.75;100.00;76438.41;5050816;28;19917;-66
2022/06/01 08:43:23;;;;;;;;;;;;;;;-142.75;100.00;76393.13;5052227;28;20285;-66
2022/06/01 08:45:51;;;;;;;;;;;;;;;-142.75;100.00;76340.00;5052146;28;20301;-67
2022/06/01 08:48:18;;;;;;;;;;;;;;;-142.75;100.00;76406.91;5035464;28;20282;-67
2022/06/01 08:50:44;;;;;;;;;;;;;;;-142.75;100.00;76464.00;5033772;28;20294;-68
2022/06/01 08:53:09;;;;;;;;;;;;;;;-142.75;100.00;76499.44;5035726;28;19917;-66
2022/06/01 08:55:47;;;;;;;;;;;;;;;-142.75;100.00;76460.06;5030847;28;19924;-66
2022/06/01 08:58:19;;;;;;;;;;;;;;;-142.75;100.00;76406.91;5037488;28;19927;-68
2022/06/01 09:00:59;;;;;;;;;;;;;;;-142.75;100.00;76369.50;5046512;28;20318;-68
2022/06/01 09:03:31;;;;;;;;;;;;;;;-142.75;100.00;76385.25;5051838;28;19917;-66
2022/06/01 09:06:16;;;;;;;;;;;;;;;-142.75;100.00;76385.25;5047887;28;19916;-68
2022/06/01 09:08:51;;;;;;;;;;;;;;;-142.75;100.00;76446.28;5049777;28;19925;-68
2022/06/01 09:11:33;;;;;;;;;;;;;;;-142.75;100.00;76495.50;5043959;28;20401;-68
2022/06/01 09:14:05;;;;;;;;;;;;;;;-142.75;100.00;76552.56;5039915;28;19923;-67
2022/06/01 09:16:35;;;;;;;;;;;;;;;-142.75;100.00;76595.88;5051592;28;19924;-68
2022/06/01 09:19:01;;;;;;;;;;;;;;;-142.75;100.00;76536.84;5051179;28;19950;-67
2022/06/01 09:24:23;;;;;;;;;;;;;;;-142.75;100.00;76389.19;5043129;28;19975;-68
2022/06/01 09:26:54;;;;;;;;;;;;;;;-142.75;100.00;76353.78;5048336;28;20004;-68
2022/06/01 09:29:21;;;;;;;;;;;;;;;-142.75;100.00;76340.00;5039573;28;19917;-67
2022/06/01 09:31:47;;;;;;;;;;;;;;;-142.75;100.00;76343.94;5039836;28;19917;-69
2022/06/01 09:34:25;;;;;;;;;;;;;;;-142.75;100.00;76397.06;5030222;28;19920;-67
2022/06/01 09:36:56;;;;;;;;;;;;;;;-142.75;100.00;76444.31;5046667;28;19970;-70
2022/06/01 09:39:22;;;;;;;;;;;;;;;-142.75;100.00;76495.50;5039807;28;19933;-69
2022/06/01 09:41:47;;;;;;;;;;;;;;;-142.75;100.00;76483.69;5051312;28;20287;-69
2022/06/01 09:44:21;;;;;;;;;;;;;;;-142.75;100.00;76428.56;5051310;28;20374;-68
2022/06/01 09:46:46;;;;;;;;;;;;;;;-142.75;100.00;76410.84;5036929;28;20020;-68
2022/06/01 09:49:18;;;;;;;;;;;;;;;-142.75;100.00;76444.31;5035928;28;20011;-68
2022/06/01 09:51:44;;;;;;;;;;;;;;;-142.75;100.00;76410.84;5036632;28;20294;-67
2022/06/01 09:54:12;;;;;;;;;;;;;;;-142.75;100.00;76345.91;5031161;28;19923;-66
2022/06/01 09:56:41;;;;;;;;;;;;;;;-142.75;100.00;76308.50;5034048;28;20000;-67
2022/06/01 10:07:24;;;;;;;;;;;;;;;-142.75;100.00;76377.38;5047691;28;20449;-68
2022/06/01 10:10:16;;;;;;;;;;;;;;;-142.75;100.00;76436.44;5044583;28;19944;-68
2022/06/01 10:12:42;;;;;;;;;;;;;;;-142.75;100.00;76485.66;5043422;28;19998;-70
2022/06/01 10:15:23;;;;;;;;;;;;;;;-142.75;100.00;76534.84;5054888;28;19924;-68
2022/06/01 10:17:52;;;;;;;;;;;;;;;-142.75;100.00;76538.78;5050201;28;19979;-69
2022/06/01 10:20:17;;;;;;;;;;;;;;;-142.75;100.00;76574.22;5045620;28;20375;-69
2022/06/01 10:22:49;;;;;;;;;;;;;;;-142.75;100.00;76542.72;5053654;28;19917;-67
2022/06/01 10:25:16;;;;;;;;;;;;;;;-142.75;100.00;76519.13;5054945;28;19917;-67
2022/06/01 10:27:50;;;;;;;;;;;;;;;-142.75;100.00;76485.66;5051857;28;19917;-66
2022/06/01 10:30:19;;;;;;;;;;;;;;;-142.75;100.00;76460.06;5054520;28;19917;-68
2022/06/01 10:32:56;;;;;;;;;;;;;;;-142.75;100.00;76408.88;5046476;28;19917;-68
2022/06/01 10:35:43;;;;;;;;;;;;;;;-142.75;100.00;76355.72;5054772;28;19917;-68
2022/06/01 10:38:17;;;;;;;;;;;;;;;-142.75;100.00;76428.56;5049742;28;20338;-69
2022/06/01 10:40:45;;;;;;;;;;;;;;;-142.75;100.00;76458.09;5040742;28;20418;-67
2022/06/01 10:43:20;;;;;;;;;;;;;;;-142.75;100.00;76519.13;5052986;28;19974;-68
2022/06/01 10:45:47;;;;;;;;;;;;;;;-142.75;100.00;76544.69;5054489;28;19952;-70
2022/06/01 10:48:12;;;;;;;;;;;;;;;-142.75;100.00;76578.16;5048685;28;20019;-67
2022/06/01 10:50:41;;;;;;;;;;;;;;;-142.75;100.00;76582.09;5053660;28;20373;-67
2022/06/01 10:53:13;;;;;;;;;;;;;;;-142.75;100.00;76609.66;5033961;28;19928;-68
2022/06/01 10:55:42;;;;;;;;;;;;;;;-142.75;100.00;76609.66;5034295;28;19924;-70
2022/06/01 10:58:17;;;;;;;;;;;;;;;-142.75;100.00;76645.09;5032591;28;19917;-68
2022/06/01 11:00:48;;;;;;;;;;;;;;;-142.75;100.00;76698.25;5032821;28;19925;-69
2022/06/01 11:03:30;;;;;;;;;;;;;;;-142.75;100.00;76649.03;5034095;28;20375;-67
2022/06/01 11:06:06;;;;;;;;;;;;;;;-142.75;100.00;76625.41;5032815;28;19917;-66
2022/06/01 11:08:39;;;;;;;;;;;;;;;-142.75;100.00;76649.03;5033599;28;19917;-68
2022/06/01 11:11:18;;;;;;;;;;;;;;;-142.75;100.00;76586.03;5033698;28;19925;-67
2022/06/01 11:13:58;;;;;;;;;;;;;;;-142.75;100.00;76527.00;5033883;28;20334;-67
2022/06/01 11:16:53;;;;;;;;;;;;;;;-142.75;100.00;76501.41;5033873;28;19971;-68
2022/06/01 11:19:21;;;;;;;;;;;;;;;-142.75;100.00;76456.13;5024262;28;19944;-67
2022/06/01 11:21:54;;;;;;;;;;;;;;;-142.75;100.00;76434.47;5033850;28;19925;-66
2022/06/01 11:24:31;;;;;;;;;;;;;;;-142.75;100.00;76420.69;5033743;28;19960;-66
2022/06/01 11:27:09;;;;;;;;;;;;;;;-142.75;100.00;76318.34;5033549;28;19944;-67
2022/06/01 11:29:53;;;;;;;;;;;;;;;-142.75;100.00;76263.22;5033369;28;19917;-66
2022/06/01 11:32:21;;;;;;;;;;;;;;;-142.75;100.00;76233.69;5032344;28;19917;-66
2022/06/01 11:35:00;;;;;;;;;;;;;;;-142.75;100.00;76237.63;5033632;28;20449;-66
2022/06/01 11:37:40;;;;;;;;;;;;;;;-142.75;100.00;76259.28;5033412;28;19956;-68
2022/06/01 11:40:15;;;;;;;;;;;;;;;-142.75;100.00;76198.28;5033011;28;19921;-69
2022/06/01 11:42:45;;;;;;;;;;;;;;;-142.75;100.00;76273.06;5033569;28;19917;-67
2022/06/01 11:45:16;;;;;;;;;;;;;;;-142.75;100.00;76280.94;5033570;28;19924;-66
2022/06/01 11:47:46;;;;;;;;;;;;;;;-142.75;100.00;76251.41;5033125;28;19917;-68
2022/06/01 11:50:30;;;;;;;;;;;;;;;-142.75;100.00;76227.78;5033076;28;19979;-66
2022/06/01 11:52:56;;;;;;;;;;;;;;;-142.75;100.00;76310.47;5033225;28;19917;-67
2022/06/01 11:55:33;;;;;;;;;;;;;;;-142.75;100.00;76420.69;5047135;28;20305;-67
2022/06/01 11:58:11;;;;;;;;;;;;;;;-142.75;100.00;76481.72;5051425;28;20003;-68
2022/06/01 12:00:42;;;;;;;;;;;;;;;-142.75;100.00;76475.81;5052807;28;19927;-69
2022/06/01 12:03:16;;;;;;;;;;;;;;;-142.75;100.00;76408.88;5033263;28;19917;-66
2022/06/01 12:05:58;;;;;;;;;;;;;;;-142.75;100.00;76357.69;5033020;28;19917;-66
2022/06/01 12:08:30;;;;;;;;;;;;;;;-142.75;100.00;76391.16;5032563;28;19920;-68
2022/06/01 12:11:06;;;;;;;;;;;;;;;-142.75;100.00;76402.97;5032948;28;19921;-67
2022/06/01 12:13:50;;;;;;;;;;;;;;;-142.75;100.00;76401.00;5032802;28;20338;-68
2022/06/01 12:16:23;;;;;;;;;;;;;;;-142.75;100.00;76353.78;5042616;28;20367;-67
2022/06/01 12:21:23;;;;;;;;;;;;;;;-142.75;100.00;76393.13;5035860;22;20004;-70
2022/06/01 12:29:36;;;;;;;;;;;;;;;-142.75;100.00;76290.78;5032207;28;19924;-70
2022/06/01 12:32:04;;;;;;;;;;;;;;;-142.75;100.00;76324.25;5032450;28;19967;-70
2022/06/01 12:34:32;;;;;;;;;;;;;;;-142.75;100.00;76361.63;5014558;28;19917;-70
2022/06/01 12:37:08;;;;;;;;;;;;;;;-142.75;100.00;76357.69;5016031;28;19964;-71
2022/06/01 12:39:35;;;;;;;;;;;;;;;-142.75;100.00;76416.75;5014371;28;19921;-70
2022/06/01 12:42:07;;;;;;;;;;;;;;;-142.75;100.00;76345.91;5032080;28;19925;-71
2022/06/01 12:44:34;;;;;;;;;;;;;;;-142.75;100.00;76349.81;5014433;28;19921;-71
2022/06/01 12:47:00;;;;;;;;;;;;;;;-142.75;100.00;76330.16;5032156;28;19996;-70
2022/06/01 12:49:33;;;;;;;;;;;;;;;-142.75;100.00;76404.94;5031718;28;20059;-71
2022/06/01 12:52:04;;;;;;;;;;;;;;;-142.75;100.00;76399.03;5014280;28;19998;-70
2022/06/01 12:54:35;;;;;;;;;;;;;;;-142.75;100.00;76475.81;5031509;28;19925;-71